Time;durP1;ratioP1;P1;durP2;ratioP2;P2;SDS_P1;SDS_P2;PMS_P1;PMS_P2;Temp;Humidity;BMP_temperature;BMP_pressure;BME280_temperature;BME280_humidity;BME280_pressure;Samples;Min_cycle;Max_cycle;Signal;HPM_P1;HPM_P2
2022/06/17 00:00:28;;;;;;;2.10;1.55;;;;;;;17.07;44.32;96308.94;4924321;29;20186;-80
2022/06/17 00:02:54;;;;;;;1.88;1.20;;;;;;;17.02;43.97;96316.50;4924562;29;20286;-77
2022/06/17 00:05:19;;;;;;;1.73;1.20;;;;;;;16.98;44.78;96308.16;4939457;29;20229;-78
2022/06/17 00:07:44;;;;;;;3.83;1.60;;;;;;;16.83;45.52;96320.31;4930978;29;20221;-78
2022/06/17 00:10:18;;;;;;;2.03;1.33;;;;;;;16.83;44.71;96321.13;4944062;29;20273;-78
2022/06/17 00:12:43;;;;;;;4.47;1.40;;;;;;;16.73;45.39;96317.06;4924286;29;20190;-79
2022/06/17 00:15:12;;;;;;;2.63;1.42;;;;;;;16.66;46.82;96316.88;4921611;29;20261;-78
2022/06/17 00:17:38;;;;;;;2.83;1.38;;;;;;;16.55;46.89;96323.28;4939985;29;20181;-79
2022/06/17 00:20:06;;;;;;;3.72;1.40;;;;;;;16.56;45.96;96332.78;4940292;29;20729;-78
2022/06/17 00:22:32;;;;;;;2.50;1.40;;;;;;;16.55;46.20;96319.84;4908363;29;20206;-78
2022/06/17 00:24:58;;;;;;;2.60;1.48;;;;;;;16.54;46.71;96331.31;4939011;29;20181;-79
2022/06/17 00:27:23;;;;;;;5.90;2.13;;;;;;;16.50;46.90;96322.94;4939834;29;20189;-79
2022/06/17 00:29:48;;;;;;;1.98;1.60;;;;;;;16.49;46.95;96321.31;4924007;29;20272;-77
2022/06/17 00:32:14;;;;;;;2.10;1.90;;;;;;;16.43;46.45;96320.19;4923688;29;20217;-78
2022/06/17 00:34:39;;;;;;;3.35;1.75;;;;;;;16.39;47.51;96320.66;4922506;29;20181;-79
2022/06/17 00:37:06;;;;;;;3.28;1.75;;;;;;;16.40;47.06;96319.69;4939907;29;20185;-79
2022/06/17 00:39:33;;;;;;;2.08;1.70;;;;;;;16.40;47.01;96319.69;4923890;29;20248;-80
2022/06/17 00:42:08;;;;;;;2.30;2.10;;;;;;;16.32;47.43;96319.69;4923583;29;20611;-79
2022/06/17 00:44:38;;;;;;;3.35;2.03;;;;;;;16.30;48.11;96321.66;4938765;29;20176;-80
2022/06/17 00:47:22;;;;;;;2.42;1.52;;;;;;;16.24;47.58;96319.69;4939218;29;20186;-79
2022/06/17 00:49:50;;;;;;;4.30;1.75;;;;;;;16.23;47.66;96331.16;4939257;29;20312;-79
2022/06/17 00:52:20;;;;;;;2.80;1.80;;;;;;;16.15;48.38;96330.16;4939136;29;20178;-80
2022/06/17 00:54:51;;;;;;;3.10;2.00;;;;;;;16.15;48.54;96332.78;4938680;29;20185;-78
2022/06/17 00:57:36;;;;;;;3.60;2.10;;;;;;;16.09;48.80;96330.81;4923434;29;20213;-79
2022/06/17 01:00:07;;;;;;;2.58;1.98;;;;;;;16.06;48.76;96325.91;4923695;29;20201;-80
2022/06/17 01:02:36;;;;;;;4.85;2.03;;;;;;;16.01;48.74;96328.19;4940881;29;20205;-80
2022/06/17 01:05:03;;;;;;;3.50;1.95;;;;;;;15.94;49.73;96334.25;4938281;29;20229;-80
2022/06/17 01:07:34;;;;;;;1.90;1.50;;;;;;;15.88;49.36;96333.06;4923579;29;20186;-80
2022/06/17 01:10:08;;;;;;;2.58;1.80;;;;;;;15.82;50.34;96328.50;4923120;29;20201;-79
2022/06/17 01:12:37;;;;;;;2.53;1.52;;;;;;;15.84;48.76;96329.97;4939607;29;20177;-80
2022/06/17 01:15:04;;;;;;;3.63;1.88;;;;;;;15.93;48.93;96324.75;4936132;29;20229;-79
2022/06/17 01:17:30;;;;;;;2.05;1.88;;;;;;;15.89;49.50;96324.22;4922262;29;20182;-79
2022/06/17 01:19:57;;;;;;;5.13;1.60;;;;;;;15.84;50.63;96322.13;4922575;29;20213;-80
2022/06/17 01:22:25;;;;;;;3.72;1.70;;;;;;;15.85;50.25;96322.94;4937715;29;20201;-78
2022/06/17 01:24:53;;;;;;;2.10;1.73;;;;;;;15.80;50.69;96314.72;4940481;29;20205;-79
2022/06/17 01:27:21;;;;;;;4.72;1.80;;;;;;;15.73;50.89;96311.13;4925140;29;20178;-80
2022/06/17 01:29:47;;;;;;;3.50;1.75;;;;;;;15.85;49.32;96317.69;4957341;28;20292;-79
2022/06/17 01:32:13;;;;;;;2.53;2.28;;;;;;;15.91;49.32;96314.44;4941717;29;20205;-79
2022/06/17 01:34:39;;;;;;;3.13;1.52;;;;;;;15.94;49.34;96313.28;4956735;28;20190;-78
2022/06/17 01:37:05;;;;;;;4.15;1.77;;;;;;;15.91;49.80;96311.00;4941290;29;20181;-78
2022/06/17 01:39:31;;;;;;;3.08;1.80;;;;;;;15.88;49.83;96317.34;4940707;29;20198;-79
2022/06/17 01:41:56;;;;;;;1.80;1.65;;;;;;;15.90;49.89;96317.19;4940648;29;20201;-79
2022/06/17 01:44:33;;;;;;;3.80;1.95;;;;;;;15.98;49.63;96317.22;4940341;29;20189;-79
2022/06/17 01:47:00;;;;;;;3.08;2.00;;;;;;;15.92;49.94;96316.06;4940784;29;20178;-79
2022/06/17 01:49:42;;;;;;;3.05;2.40;;;;;;;15.88;50.02;96319.16;4956575;28;20495;-79
2022/06/17 01:52:12;;;;;;;2.25;1.60;;;;;;;15.90;50.25;96325.88;4956749;28;20177;-78
2022/06/17 01:54:47;;;;;;;3.80;2.08;;;;;;;15.88;50.07;96313.94;4940398;29;20654;-79
2022/06/17 01:57:16;;;;;;;1.85;1.70;;;;;;;15.78;51.64;96316.69;4957479;28;20174;-80
2022/06/17 01:59:46;;;;;;;3.22;1.83;;;;;;;15.77;51.02;96309.81;4956085;28;20194;-80
2022/06/17 02:02:13;;;;;;;1.80;1.65;;;;;;;15.93;50.54;96309.03;4942928;29;20208;-79
2022/06/17 02:04:46;;;;;;;3.22;1.67;;;;;;;15.97;50.39;96316.38;4925636;29;20198;-80
2022/06/17 02:07:22;;;;;;;2.70;2.03;;;;;;;15.79;50.92;96318.31;4954046;29;20178;-80
2022/06/17 02:09:48;;;;;;;4.18;1.60;;;;;;;15.87;50.35;96315.72;4953413;28;20193;-80
2022/06/17 02:12:15;;;;;;;2.92;1.70;;;;;;;15.83;50.59;96317.03;4953706;28;20252;-80
2022/06/17 02:14:40;;;;;;;2.75;1.60;;;;;;;15.87;50.37;96320.97;4951610;29;20261;-79
2022/06/17 02:17:06;;;;;;;2.38;1.52;;;;;;;15.98;50.21;96319.81;4937866;29;20208;-80
2022/06/17 02:19:35;;;;;;;5.72;1.77;;;;;;;15.97;50.00;96326.06;4953199;28;20772;-80
2022/06/17 02:22:23;;;;;;;3.65;1.80;;;;;;;15.97;50.14;96324.25;4938696;29;20194;-80
2022/06/17 02:24:50;;;;;;;4.03;1.75;;;;;;;15.88;50.25;96317.34;4936987;29;20238;-78
2022/06/17 02:27:16;;;;;;;2.72;1.60;;;;;;;15.80;50.91;96304.25;4952975;28;20189;-80
2022/06/17 02:29:43;;;;;;;1.50;1.40;;;;;;;15.78;50.94;96309.66;4936365;29;20292;-79
2022/06/17 02:32:10;;;;;;;2.88;1.60;;;;;;;15.75;50.85;96301.31;4937018;29;20550;-79
2022/06/17 02:34:44;;;;;;;1.67;1.58;;;;;;;15.73;50.86;96290.19;4935184;29;20190;-79
2022/06/17 02:37:10;;;;;;;1.70;1.58;;;;;;;15.64;51.54;96294.59;4952312;28;20182;-80
2022/06/17 02:39:40;;;;;;;2.10;1.70;;;;;;;15.57;51.45;96297.00;4936153;29;20709;-79
2022/06/17 02:42:08;;;;;;;3.53;1.83;;;;;;;15.57;51.77;96298.78;4920461;29;20202;-80
2022/06/17 02:44:39;;;;;;;4.00;1.73;;;;;;;15.53;52.00;96298.28;4935008;29;20574;-80
2022/06/17 02:47:05;;;;;;;2.80;1.67;;;;;;;15.47;52.40;96288.47;4919906;29;20255;-79
2022/06/17 02:49:33;;;;;;;2.47;1.48;;;;;;;15.46;52.50;96293.84;4951877;29;20202;-80
2022/06/17 02:51:59;;;;;;;2.33;1.88;;;;;;;15.22;54.04;96294.59;4936182;29;20209;-79
2022/06/17 02:54:31;;;;;;;2.42;1.70;;;;;;;15.22;53.69;96297.22;4950970;28;20217;-79
2022/06/17 02:56:57;;;;;;;2.72;1.73;;;;;;;15.16;54.23;96292.59;4951566;29;20256;-80
2022/06/17 02:59:26;;;;;;;2.13;1.52;;;;;;;15.10;54.14;96311.53;4951723;29;20217;-79
2022/06/17 03:01:55;;;;;;;2.75;1.80;;;;;;;15.08;54.41;96308.25;4919432;29;20265;-80
2022/06/17 03:04:30;;;;;;;4.60;1.90;;;;;;;14.95;56.29;96309.53;4919133;29;20186;-80
2022/06/17 03:06:56;;;;;;;3.42;1.85;;;;;;;14.99;55.65;96302.16;4951703;29;20178;-80
2022/06/17 03:09:25;;;;;;;2.92;1.83;;;;;;;14.92;56.05;96301.97;4951788;29;20198;-79
2022/06/17 03:12:03;;;;;;;3.57;2.10;;;;;;;14.83;56.49;96295.06;4919493;29;20221;-79
2022/06/17 03:14:34;;;;;;;2.20;1.70;;;;;;;14.82;56.11;96300.44;4949219;29;20653;-81
2022/06/17 03:17:02;;;;;;;3.08;1.70;;;;;;;14.82;57.26;96303.06;4919908;29;20182;-80
2022/06/17 03:19:28;;;;;;;3.00;1.60;;;;;;;14.80;57.12;96303.22;4935710;29;20210;-80
2022/06/17 03:21:54;;;;;;;2.25;1.50;;;;;;;14.80;56.75;96305.03;4919491;29;20182;-80
2022/06/17 03:24:25;;;;;;;4.72;1.85;;;;;;;14.84;56.64;96301.94;4935057;29;20654;-80
2022/06/17 03:27:05;;;;;;;4.65;2.10;;;;;;;14.82;56.81;96303.88;4935170;29;20272;-80
2022/06/17 03:29:31;;;;;;;2.30;2.00;;;;;;;14.80;56.76;96302.41;4936814;29;20233;-80
2022/06/17 03:32:00;;;;;;;2.80;1.88;;;;;;;14.78;57.10;96304.38;4951493;28;20590;-79
2022/06/17 03:34:42;;;;;;;2.03;1.70;;;;;;;14.79;56.75;96304.19;4934755;29;20185;-80
2022/06/17 03:37:38;;;;;;;2.73;1.63;;;;;;;14.91;57.40;96313.41;4935294;29;20185;-79
2022/06/17 03:40:15;;;;;;;3.42;1.63;;;;;;;14.98;57.25;96314.44;4920994;29;20214;-80
2022/06/17 03:42:47;;;;;;;4.70;2.20;;;;;;;15.07;57.05;96317.09;4950863;28;20201;-80
2022/06/17 03:45:16;;;;;;;3.78;2.13;;;;;;;15.16;56.73;96318.75;4918412;29;20185;-80
2022/06/17 03:48:00;;;;;;;3.40;1.80;;;;;;;15.12;57.76;96317.44;4918352;29;20178;-80
2022/06/17 03:50:28;;;;;;;9.00;2.20;;;;;;;15.33;57.33;96320.47;4934838;29;20201;-79
2022/06/17 03:52:58;;;;;;;2.47;1.77;;;;;;;15.81;55.04;96332.06;4950776;29;20511;-79
2022/06/17 03:55:24;;;;;;;3.05;1.88;;;;;;;16.57;52.14;96333.59;4934416;29;20186;-80
2022/06/17 03:57:53;;;;;;;4.03;2.00;;;;;;;17.21;50.60;96335.28;4935269;29;20182;-80
2022/06/17 04:00:39;;;;;;;2.83;1.55;;;;;;;17.96;48.90;96336.59;4934996;29;20305;-80
2022/06/17 04:03:07;;;;;;;2.22;1.88;;;;;;;18.58;46.70;96339.09;4936590;29;20216;-80
2022/06/17 04:05:32;;;;;;;2.10;1.70;;;;;;;19.48;44.44;96333.72;4917961;29;20205;-80
2022/06/17 04:07:58;;;;;;;1.60;1.45;;;;;;;19.64;43.65;96351.16;4935211;29;20257;-79
2022/06/17 04:10:25;;;;;;;1.83;1.70;;;;;;;19.98;43.52;96346.09;4951650;29;20540;-80
2022/06/17 04:12:52;;;;;;;3.60;1.70;;;;;;;20.42;42.22;96352.19;4935338;29;20273;-80
2022/06/17 04:15:36;;;;;;;1.60;1.50;;;;;;;20.41;42.22;96356.66;4933429;29;20564;-80
2022/06/17 04:18:01;;;;;;;1.60;1.50;;;;;;;20.37;42.19;96358.84;4934909;29;20170;-80
2022/06/17 04:20:42;;;;;;;2.50;1.70;;;;;;;20.37;42.03;96361.47;4934918;29;20696;-79
2022/06/17 04:23:12;;;;;;;2.20;1.50;;;;;;;20.44;42.77;96358.13;4934334;29;20243;-80
2022/06/17 04:25:44;;;;;;;1.92;1.58;;;;;;;20.85;41.36;96368.84;4918937;29;20530;-79
2022/06/17 04:28:13;;;;;;;2.65;1.83;;;;;;;20.89;41.21;96367.44;4918799;29;20674;-82
2022/06/17 04:30:48;;;;;;;2.95;1.45;;;;;;;20.44;41.82;96372.13;4918962;29;20709;-79
2022/06/17 04:33:38;;;;;;;3.75;1.73;;;;;;;20.15;43.31;96375.69;4934362;29;20240;-79
2022/06/17 04:36:12;;;;;;;4.28;1.60;;;;;;;19.81;44.99;96365.78;4950475;29;20174;-80
2022/06/17 04:38:54;;;;;;;2.25;1.65;;;;;;;20.12;42.94;96383.94;4934396;29;20196;-81
2022/06/17 04:41:21;;;;;;;1.67;1.58;;;;;;;20.32;43.69;96378.91;4951372;29;20245;-79
2022/06/17 04:43:48;;;;;;;2.50;1.48;;;;;;;22.44;38.30;96381.00;4934349;29;20210;-79
2022/06/17 04:46:18;;;;;;;2.15;1.80;;;;;;;22.42;37.52;96383.00;4935290;29;20186;-80
2022/06/17 04:48:44;;;;;;;3.20;1.70;;;;;;;23.13;35.80;96380.63;4934957;29;20205;-80
2022/06/17 04:51:10;;;;;;;2.13;1.42;;;;;;;24.13;33.33;96375.84;4950677;29;20190;-79
2022/06/17 04:53:38;;;;;;;5.10;1.50;;;;;;;24.96;31.60;96380.19;4934792;29;20247;-80
2022/06/17 04:56:05;;;;;;;2.15;1.20;;;;;;;26.88;28.40;96388.59;4934669;29;20658;-80
2022/06/17 04:58:31;;;;;;;2.60;1.55;;;;;;;26.76;27.64;96392.03;4938309;29;20674;-80
2022/06/17 05:00:56;;;;;;;3.08;1.42;;;;;;;27.33;27.08;96403.00;4955008;29;20193;-80
2022/06/17 05:03:26;;;;;;;3.53;1.17;;;;;;;28.49;25.75;96401.16;4923325;29;20213;-80
2022/06/17 05:05:51;;;;;;;2.22;1.50;;;;;;;27.82;26.58;96395.53;4938424;29;20181;-80
2022/06/17 05:08:25;;;;;;;1.65;1.30;;;;;;;28.48;25.42;96402.22;4938825;29;20232;-80
2022/06/17 05:10:59;;;;;;;1.45;1.30;;;;;;;27.47;27.11;96402.75;4939095;29;20185;-81
2022/06/17 05:13:30;;;;;;;1.50;1.30;;;;;;;28.69;25.34;96400.69;4955012;28;20177;-80
2022/06/17 05:15:56;;;;;;;1.33;1.02;;;;;;;30.54;22.74;96408.38;4935854;29;20275;-80
2022/06/17 05:18:21;;;;;;;2.10;1.20;;;;;;;31.25;21.58;96419.78;4937943;29;20234;-80
2022/06/17 05:20:46;;;;;;;3.47;1.27;;;;;;;32.88;19.38;96412.47;4937723;29;20194;-80
2022/06/17 05:23:14;;;;;;;2.63;1.00;;;;;;;33.32;19.58;96408.41;4954409;29;20677;-79
2022/06/17 05:25:42;;;;;;;1.10;1.00;;;;;;;33.87;18.46;96417.47;4953294;29;20174;-80
2022/06/17 05:28:11;;;;;;;1.70;1.25;;;;;;;31.67;21.13;96413.59;4953993;29;20182;-79
2022/06/17 05:30:40;;;;;;;2.60;1.15;;;;;;;33.01;19.87;96411.09;4937699;29;20178;-80
2022/06/17 05:33:05;;;;;;;1.55;1.20;;;;;;;30.55;23.11;96412.66;4954024;29;20185;-80
2022/06/17 05:35:31;;;;;;;6.30;1.30;;;;;;;31.47;21.53;96413.50;4953935;28;20182;-80
2022/06/17 05:37:57;;;;;;;3.00;1.25;;;;;;;31.51;21.16;96419.94;4937825;29;20213;-80
2022/06/17 05:40:22;;;;;;;3.60;1.40;;;;;;;30.00;23.74;96424.34;4953875;29;20245;-80
2022/06/17 05:42:48;;;;;;;5.38;1.30;;;;;;;29.82;23.78;96417.44;4954503;29;20202;-80
2022/06/17 05:45:18;;;;;;;4.63;1.52;;;;;;;29.91;23.63;96425.84;4937077;29;20525;-79
2022/06/17 05:47:44;;;;;;;2.20;1.40;;;;;;;31.69;21.29;96429.44;4937773;29;20638;-79
2022/06/17 05:50:11;;;;;;;3.25;1.52;;;;;;;30.20;23.99;96425.69;4937589;29;20237;-80
2022/06/17 05:52:49;;;;;;;2.28;1.40;;;;;;;31.33;21.98;96431.09;4938689;29;20174;-80
2022/06/17 05:55:14;;;;;;;2.50;1.52;;;;;;;31.83;21.60;96434.13;4922328;29;20233;-80
2022/06/17 05:57:40;;;;;;;2.72;1.70;;;;;;;32.72;20.83;96435.00;4954486;29;20185;-79
2022/06/17 06:00:05;;;;;;;3.58;1.70;;;;;;;32.04;21.08;96440.41;4938173;29;20202;-79
2022/06/17 06:02:30;;;;;;;1.67;1.50;;;;;;;33.89;19.20;96436.88;4954305;29;20222;-80
2022/06/17 06:04:56;;;;;;;2.70;1.63;;;;;;;33.11;20.08;96438.00;4937885;29;20186;-80
2022/06/17 06:07:21;;;;;;;2.33;1.50;;;;;;;32.69;20.17;96438.22;4939075;29;20642;-80
2022/06/17 06:09:46;;;;;;;1.60;1.50;;;;;;;32.56;20.57;96436.84;4953995;28;20190;-80
2022/06/17 06:12:12;;;;;;;2.47;1.48;;;;;;;32.24;21.04;96438.88;4955162;29;20222;-80
2022/06/17 06:14:37;;;;;;;1.88;1.35;;;;;;;32.41;21.92;96424.16;4937362;29;20186;-80
2022/06/17 06:17:03;;;;;;;3.63;1.40;;;;;;;31.92;21.96;96425.59;4938373;29;20206;-80
2022/06/17 06:19:30;;;;;;;4.72;1.85;;;;;;;31.27;22.63;96430.25;4938369;29;20292;-80
2022/06/17 06:21:55;;;;;;;1.92;1.25;;;;;;;32.70;20.82;96431.78;4938435;29;20182;-81
2022/06/17 06:24:21;;;;;;;2.92;1.67;;;;;;;32.85;20.87;96437.19;4936533;29;20190;-78
2022/06/17 06:26:46;;;;;;;3.35;1.83;;;;;;;31.89;21.47;96436.84;4953752;29;20590;-79
2022/06/17 06:29:11;;;;;;;3.95;1.90;;;;;;;30.99;22.99;96434.81;4937165;29;20234;-80
2022/06/17 06:31:37;;;;;;;2.22;1.45;;;;;;;32.41;21.83;96434.09;4938766;29;20181;-80
2022/06/17 06:34:02;;;;;;;2.13;1.60;;;;;;;31.19;22.57;96433.41;4935617;29;20236;-80
2022/06/17 06:36:28;;;;;;;3.50;1.60;;;;;;;29.84;24.44;96427.91;4956050;29;20240;-79
2022/06/17 06:38:53;;;;;;;7.70;1.77;;;;;;;31.46;22.87;96441.41;4940510;29;20201;-80
2022/06/17 06:41:20;;;;;;;3.78;2.00;;;;;;;33.11;20.21;96435.31;4955061;28;20543;-79
2022/06/17 06:43:46;;;;;;;2.88;1.90;;;;;;;33.29;20.03;96436.66;4955597;29;20217;-78
2022/06/17 06:46:14;;;;;;;4.40;1.67;;;;;;;32.18;21.29;96442.63;4940019;29;20184;-78
2022/06/17 06:48:39;;;;;;;3.13;1.85;;;;;;;32.41;20.61;96437.59;4955620;29;20292;-78
2022/06/17 06:51:05;;;;;;;3.47;2.05;;;;;;;32.90;20.30;96431.81;4955865;29;20193;-78
2022/06/17 06:53:30;;;;;;;4.75;2.15;;;;;;;32.60;20.33;96429.88;4956876;28;20169;-78
2022/06/17 06:55:55;;;;;;;3.30;2.00;;;;;;;31.32;22.07;96432.16;4956791;29;20213;-78
2022/06/17 06:58:23;;;;;;;3.05;2.00;;;;;;;34.61;18.13;96438.19;4957568;28;20220;-78
2022/06/17 07:00:50;;;;;;;3.97;2.13;;;;;;;32.19;21.17;96439.66;4956352;28;20185;-78
2022/06/17 07:03:17;;;;;;;2.40;1.70;;;;;;;32.27;21.09;96447.22;4956496;29;20201;-79
2022/06/17 07:05:44;;;;;;;4.43;2.08;;;;;;;32.85;19.98;96444.44;4955764;29;20621;-79
2022/06/17 07:08:11;;;;;;;2.97;1.73;;;;;;;33.02;20.34;96444.19;4959076;28;20654;-80
2022/06/17 07:10:38;;;;;;;3.13;1.63;;;;;;;32.57;21.33;96445.72;4941500;29;20173;-80
2022/06/17 07:13:05;;;;;;;4.07;1.70;;;;;;;33.98;19.67;96448.72;4957799;29;20704;-80
2022/06/17 07:15:31;;;;;;;2.10;1.88;;;;;;;33.23;20.46;96443.13;4940667;28;20588;-80
2022/06/17 07:18:07;;;;;;;2.10;1.83;;;;;;;32.33;21.49;96442.69;4956700;29;20188;-79
2022/06/17 07:20:42;;;;;;;4.70;2.20;;;;;;;31.37;21.06;96441.06;4940489;28;20283;-79
2022/06/17 07:23:09;;;;;;;3.83;2.30;;;;;;;30.71;22.76;96448.53;4957454;29;20196;-80
2022/06/17 07:25:35;;;;;;;4.25;2.30;;;;;;;31.38;21.78;96442.69;4939280;29;20750;-80
2022/06/17 07:28:01;;;;;;;3.65;2.13;;;;;;;32.16;21.19;96450.13;4940993;28;20189;-79
2022/06/17 07:30:27;;;;;;;3.33;1.90;;;;;;;32.55;19.79;96445.19;4957408;28;20664;-80
2022/06/17 07:32:53;;;;;;;4.38;2.22;;;;;;;29.83;23.92;96442.34;4940394;29;20264;-80
2022/06/17 07:35:18;;;;;;;4.82;2.53;;;;;;;31.11;21.66;96450.78;4955449;28;20263;-80
2022/06/17 07:40:28;;;;;;;3.90;1.98;;;;;;;31.37;21.50;96445.63;4955391;28;20208;-80
2022/06/17 07:42:55;;;;;;;2.90;1.80;;;;;;;30.40;23.68;96447.38;4954539;28;20216;-81
2022/06/17 07:45:20;;;;;;;1.88;1.77;;;;;;;29.32;24.49;96441.56;4938050;29;20197;-80
2022/06/17 07:47:48;;;;;;;2.10;1.73;;;;;;;30.18;23.19;96458.91;4939776;29;20188;-79
2022/06/17 07:50:18;;;;;;;3.97;2.35;;;;;;;28.87;25.03;96449.63;4953874;28;20279;-80
2022/06/17 07:52:43;;;;;;;4.68;1.83;;;;;;;28.78;24.29;96452.69;4935718;28;20305;-80
2022/06/17 07:55:09;;;;;;;1.92;1.77;;;;;;;28.08;24.58;96452.94;4952905;28;20519;-80
2022/06/17 07:57:34;;;;;;;4.53;2.10;;;;;;;26.90;28.29;96450.47;4955117;28;20174;-81
2022/06/17 08:00:00;;;;;;;3.40;1.92;;;;;;;27.43;27.83;96455.78;4955026;29;20193;-80
2022/06/17 08:02:25;;;;;;;3.22;1.92;;;;;;;26.54;28.63;96460.19;4955001;29;20231;-80
2022/06/17 08:04:51;;;;;;;4.18;2.17;;;;;;;26.96;27.65;96462.88;4936476;29;20502;-80
2022/06/17 08:07:20;;;;;;;2.47;1.60;;;;;;;26.41;25.79;96452.38;4954210;29;20185;-80
2022/06/17 08:09:45;;;;;;;3.97;2.10;;;;;;;26.94;27.26;96448.94;4936520;29;20193;-80
2022/06/17 08:12:13;;;;;;;3.55;2.45;;;;;;;25.76;27.92;96444.94;4953679;29;20251;-80
2022/06/17 08:14:43;;;;;;;2.25;1.38;;;;;;;26.39;26.23;96446.47;4954567;29;20184;-80
2022/06/17 08:17:13;;;;;;;2.65;1.52;;;;;;;26.49;26.52;96441.41;4937617;29;20303;-80
2022/06/17 08:19:39;;;;;;;2.72;1.60;;;;;;;26.67;26.12;96444.00;4938482;29;20224;-80
2022/06/17 08:22:04;;;;;;;3.83;2.00;;;;;;;26.20;28.82;96441.13;4938302;29;20184;-80
2022/06/17 08:24:30;;;;;;;2.47;1.52;;;;;;;27.18;26.41;96447.16;4954382;28;20642;-80
2022/06/17 08:26:55;;;;;;;3.20;1.90;;;;;;;26.59;27.64;96441.66;4954498;29;20177;-80
2022/06/17 08:29:20;;;;;;;2.97;1.98;;;;;;;26.06;28.85;96429.06;4938547;29;20616;-80
2022/06/17 08:31:46;;;;;;;6.45;2.20;;;;;;;25.21;30.16;96436.84;4954335;28;20211;-80
2022/06/17 08:34:11;;;;;;;3.03;1.90;;;;;;;25.02;29.75;96438.66;4952972;29;20197;-80
2022/06/17 08:36:36;;;;;;;5.03;2.03;;;;;;;25.23;29.94;96439.28;4938218;29;20191;-79
2022/06/17 08:39:08;;;;;;;2.38;1.90;;;;;;;25.37;29.62;96443.47;4938065;29;20236;-80
2022/06/17 08:41:35;;;;;;;4.57;2.30;;;;;;;26.03;28.59;96447.28;4954380;28;20200;-79
2022/06/17 08:44:22;;;;;;;2.10;1.83;;;;;;;25.43;29.58;96447.88;4953680;29;20208;-80
2022/06/17 08:47:04;;;;;;;1.95;1.70;;;;;;;25.80;28.34;96445.31;4937996;29;20223;-79
2022/06/17 08:49:38;;;;;;;3.15;1.70;;;;;;;25.22;29.81;96440.31;4953814;28;20205;-79
2022/06/17 08:52:24;;;;;;;11.32;4.82;;;;;;;26.60;27.38;96450.50;4955573;28;20187;-79
2022/06/17 08:55:27;;;;;;;4.47;2.65;;;;;;;26.69;27.68;96449.13;4953894;28;20183;-79
2022/06/17 08:57:59;;;;;;;3.10;2.10;;;;;;;26.30;28.41;96448.59;4954454;29;20177;-79
2022/06/17 09:00:59;;;;;;;4.15;2.13;;;;;;;26.82;27.69;96454.25;4938238;29;20185;-79
2022/06/17 09:04:08;;;;;;;5.43;2.67;;;;;;;25.69;29.08;96450.28;4954415;28;20215;-79
2022/06/17 09:06:54;;;;;;;3.90;2.15;;;;;;;25.81;28.41;96447.75;4955294;28;20189;-79
2022/06/17 09:09:31;;;;;;;6.97;3.08;;;;;;;25.07;30.07;96441.44;4955762;29;20248;-78
2022/06/17 09:12:02;;;;;;;4.47;2.15;;;;;;;25.36;29.02;96433.88;4955319;29;20312;-79
2022/06/17 09:14:36;;;;;;;4.75;2.83;;;;;;;25.49;27.99;96441.69;4953491;29;20220;-79
2022/06/17 09:17:37;;;;;;;24.75;11.70;;;;;;;25.81;27.01;96437.13;4954274;29;20268;-80
2022/06/17 09:20:04;;;;;;;3.25;2.15;;;;;;;25.48;28.10;96448.06;4880656;29;20335;-80
2022/06/17 09:22:56;;;;;;;21.27;8.15;;;;;;;25.36;30.10;96447.97;4865156;29;20215;-78
2022/06/17 09:25:26;;;;;;;7.40;2.83;;;;;;;25.23;29.37;96439.28;4895584;29;20191;-79
2022/06/17 09:27:53;;;;;;;2.30;1.98;;;;;;;25.07;30.77;96436.13;4864696;29;20199;-79
2022/06/17 09:30:25;;;;;;;6.38;3.33;;;;;;;25.02;30.40;96445.78;4864481;29;20310;-79
2022/06/17 09:32:56;;;;;;;4.45;2.08;;;;;;;25.05;31.47;96448.00;4864940;29;20238;-79
2022/06/17 09:35:39;;;;;;;4.28;2.40;;;;;;;24.93;30.20;96447.06;4879868;29;20813;-79
2022/06/17 09:38:27;;;;;;;4.22;2.13;;;;;;;24.95;30.38;96437.84;4880926;29;20279;-79
2022/06/17 09:41:06;;;;;;;6.65;2.92;;;;;;;24.93;29.91;96439.91;4879659;29;20187;-79
2022/06/17 09:43:50;;;;;;;2.90;2.28;;;;;;;25.90;29.97;96433.13;4879980;29;20318;-78
2022/06/17 09:46:34;;;;;;;2.53;2.03;;;;;;;26.61;29.68;96442.28;4883307;29;20350;-79
2022/06/17 09:49:07;;;;;;;12.50;4.50;;;;;;;26.73;29.55;96443.13;4883478;29;20199;-80
2022/06/17 09:51:59;;;;;;;6.72;2.55;;;;;;;26.32;28.62;96438.53;4884293;29;20215;-81
2022/06/17 09:54:40;;;;;;;15.75;4.63;;;;;;;26.75;30.16;96438.34;4900573;29;20578;-79
2022/06/17 09:57:24;;;;;;;2.00;1.70;;;;;;;27.23;27.45;96449.97;4957470;28;20177;-79
2022/06/17 10:00:07;;;;;;;5.88;2.00;;;;;;;27.30;27.84;96438.16;4958793;29;20199;-79
2022/06/17 10:02:51;;;;;;;4.80;1.92;;;;;;;26.63;26.68;96439.38;4958914;28;20292;-78
2022/06/17 10:05:28;;;;;;;3.80;1.48;;;;;;;26.51;26.26;96437.50;4956445;28;20177;-79
2022/06/17 10:08:01;;;;;;;3.33;1.73;;;;;;;26.77;26.30;96441.63;4956809;28;20188;-78
2022/06/17 10:10:36;;;;;;;3.22;1.80;;;;;;;26.19;28.09;96439.50;4942277;29;20185;-78
2022/06/17 10:13:12;;;;;;;5.15;1.90;;;;;;;26.99;26.60;96438.41;4941709;29;20173;-79
2022/06/17 10:19:18;;;;;;;3.85;2.00;;;;;;;27.79;26.93;96438.72;4921921;29;20215;-79
2022/06/17 10:21:49;;;;;;;3.85;1.80;;;;;;;26.94;27.53;96432.97;4956651;28;20180;-84
2022/06/17 10:24:43;;;;;;;1.80;1.70;;;;;;;27.80;24.80;96439.53;4950862;28;20220;-84
2022/06/17 10:27:27;;;;;;;3.13;1.85;;;;;;;28.16;26.57;96443.75;4949004;28;20193;-77
2022/06/17 10:30:03;;;;;;;1.95;1.60;;;;;;;28.51;26.02;96435.63;4939067;29;20239;-78
2022/06/17 10:32:32;;;;;;;2.85;1.67;;;;;;;27.76;26.45;96444.53;4940168;29;20173;-78
2022/06/17 10:35:01;;;;;;;1.88;1.60;;;;;;;28.18;26.17;96442.50;4923533;29;20189;-78
2022/06/17 10:37:28;;;;;;;4.97;1.92;;;;;;;27.23;28.01;96432.13;4922297;29;20288;-78
2022/06/17 10:39:55;;;;;;;4.00;1.95;;;;;;;27.30;28.02;96430.16;4923837;29;20205;-78
2022/06/17 10:42:21;;;;;;;3.08;1.98;;;;;;;26.82;27.59;96425.75;4940228;29;20745;-78
2022/06/17 10:44:54;;;;;;;3.80;2.10;;;;;;;26.73;27.52;96424.47;4923537;29;20235;-78
2022/06/17 10:47:40;;;;;;;5.75;2.03;;;;;;;26.29;29.42;96427.53;4939485;29;20185;-78
2022/06/17 10:50:12;;;;;;;5.15;1.80;;;;;;;25.85;29.92;96421.50;4923006;29;20312;-79
2022/06/17 10:52:42;;;;;;;4.32;2.13;;;;;;;26.62;28.33;96417.25;4939386;29;20166;-78
2022/06/17 10:55:18;;;;;;;4.47;1.48;;;;;;;27.07;26.73;96416.78;4938380;28;20176;-79
2022/06/17 10:58:05;;;;;;;2.80;1.45;;;;;;;27.33;25.61;96429.69;4939475;29;20177;-78
2022/06/17 11:00:32;;;;;;;4.50;1.50;;;;;;;27.66;24.88;96428.31;4939333;29;20173;-77
2022/06/17 11:03:15;;;;;;;2.92;1.30;;;;;;;27.22;25.61;96435.03;4939324;29;20691;-78
2022/06/17 11:05:40;;;;;;;3.15;1.90;;;;;;;27.41;26.10;96425.84;4943864;29;20189;-77
2022/06/17 11:08:19;;;;;;;4.22;1.50;;;;;;;27.40;24.65;96431.44;4954693;28;20544;-78
2022/06/17 11:10:52;;;;;;;4.90;1.80;;;;;;;27.25;24.73;96432.69;4938519;29;20181;-78
2022/06/17 11:13:19;;;;;;;5.40;2.03;;;;;;;27.45;26.98;96436.88;4955094;29;20269;-78
2022/06/17 11:15:47;;;;;;;8.48;1.67;;;;;;;27.89;25.47;96436.25;4954464;29;20192;-77
2022/06/17 11:18:24;;;;;;;8.32;2.22;;;;;;;27.72;24.91;96434.56;4956775;29;20189;-78
2022/06/17 11:21:06;;;;;;;6.78;1.90;;;;;;;27.67;24.20;96429.94;4954904;29;20196;-79
2022/06/17 11:23:35;;;;;;;2.90;1.20;;;;;;;27.04;25.03;96430.59;4936647;29;20695;-80
2022/06/17 11:26:24;;;;;;;2.70;1.35;;;;;;;27.59;24.52;96427.59;4954189;29;20661;-77
2022/06/17 11:28:53;;;;;;;2.83;1.60;;;;;;;27.47;24.48;96440.09;4954459;28;20209;-79
2022/06/17 11:31:21;;;;;;;2.33;1.40;;;;;;;27.81;23.83;96425.94;4922080;29;20178;-79
2022/06/17 11:33:52;;;;;;;3.17;1.30;;;;;;;28.30;23.68;96429.13;4953649;29;20185;-79
2022/06/17 11:36:27;;;;;;;2.67;1.70;;;;;;;27.80;22.21;96437.69;4952669;29;20552;-79
2022/06/17 11:38:52;;;;;;;2.13;1.50;;;;;;;27.94;22.89;96431.06;4954700;29;20204;-79
2022/06/17 11:41:20;;;;;;;4.30;1.70;;;;;;;27.79;22.87;96433.38;4955214;29;20547;-79
2022/06/17 11:43:47;;;;;;;2.40;1.23;;;;;;;27.41;23.61;96428.53;4938403;29;20204;-80
2022/06/17 11:46:18;;;;;;;2.35;1.10;;;;;;;27.54;22.78;96427.47;4939242;29;20181;-79
2022/06/17 11:48:54;;;;;;;1.63;1.00;;;;;;;28.35;22.11;96413.16;4954820;28;20204;-80
2022/06/17 11:51:32;;;;;;;2.50;1.38;;;;;;;29.03;22.31;96414.94;4938571;29;20762;-79
2022/06/17 11:54:02;;;;;;;1.75;1.08;;;;;;;28.23;21.95;96407.84;4954749;29;20176;-80
2022/06/17 11:56:37;;;;;;;1.85;1.20;;;;;;;28.28;21.45;96391.13;4954578;28;20180;-79